sensor_id;sensor_type;location;lat;lon;timestamp;temperature;humidity
26336;DHT22;14047;50.936;4.654;2023-01-15T00:01:26;8.30;99.90
26336;DHT22;14047;50.936;4.654;2023-01-15T00:03:54;8.20;99.90
26336;DHT22;14047;50.936;4.654;2023-01-15T00:06:21;8.30;99.90
26336;DHT22;14047;50.936;4.654;2023-01-15T00:08:47;8.40;99.90
26336;DHT22;14047;50.936;4.654;2023-01-15T00:11:14;8.30;99.90
26336;DHT22;14047;50.936;4.654;2023-01-15T00:13:41;8.50;99.90
26336;DHT22;14047;50.936;4.654;2023-01-15T00:16:10;8.60;99.90
26336;DHT22;14047;50.936;4.654;2023-01-15T00:18:37;8.60;99.90
26336;DHT22;14047;50.936;4.654;2023-01-15T00:21:05;8.60;99.90
26336;DHT22;14047;50.936;4.654;2023-01-15T00:23:32;8.70;99.90
26336;DHT22;14047;50.936;4.654;2023-01-15T00:26:19;8.60;99.90
26336;DHT22;14047;50.936;4.654;2023-01-15T00:29:04;8.70;99.90
26336;DHT22;14047;50.936;4.654;2023-01-15T00:31:31;8.80;99.90
26336;DHT22;14047;50.936;4.654;2023-01-15T00:33:58;8.80;99.90
26336;DHT22;14047;50.936;4.654;2023-01-15T00:36:24;8.70;99.90
26336;DHT22;14047;50.936;4.654;2023-01-15T00:38:50;8.60;99.90
26336;DHT22;14047;50.936;4.654;2023-01-15T00:41:17;8.60;99.90
26336;DHT22;14047;50.936;4.654;2023-01-15T00:43:43;8.60;99.90
26336;DHT22;14047;50.936;4.654;2023-01-15T00:46:09;8.60;99.90
26336;DHT22;14047;50.936;4.654;2023-01-15T00:48:35;8.70;99.90
26336;DHT22;14047;50.936;4.654;2023-01-15T00:51:02;8.60;99.90
26336;DHT22;14047;50.936;4.654;2023-01-15T00:53:28;8.60;99.90
26336;DHT22;14047;50.936;4.654;2023-01-15T00:55:54;8.60;99.90
26336;DHT22;14047;50.936;4.654;2023-01-15T00:58:20;8.60;99.90
26336;DHT22;14047;50.936;4.654;2023-01-15T01:00:46;8.60;99.90
26336;DHT22;14047;50.936;4.654;2023-01-15T01:03:13;8.60;99.90
26336;DHT22;14047;50.936;4.654;2023-01-15T01:05:38;8.60;99.90
26336;DHT22;14047;50.936;4.654;2023-01-15T01:08:04;8.50;99.90
26336;DHT22;14047;50.936;4.654;2023-01-15T01:10:30;8.50;99.90
26336;DHT22;14047;50.936;4.654;2023-01-15T01:12:56;8.60;99.90
26336;DHT22;14047;50.936;4.654;2023-01-15T01:15:22;8.60;99.90
26336;DHT22;14047;50.936;4.654;2023-01-15T01:17:50;8.60;99.90
26336;DHT22;14047;50.936;4.654;2023-01-15T01:20:17;8.50;99.90
26336;DHT22;14047;50.936;4.654;2023-01-15T01:22:47;8.50;99.90
26336;DHT22;14047;50.936;4.654;2023-01-15T01:25:14;8.50;99.90
26336;DHT22;14047;50.936;4.654;2023-01-15T01:27:43;8.50;99.90
26336;DHT22;14047;50.936;4.654;2023-01-15T01:30:10;8.50;99.90
26336;DHT22;14047;50.936;4.654;2023-01-15T01:32:36;8.50;99.90
26336;DHT22;14047;50.936;4.654;2023-01-15T01:35:02;8.50;99.90
26336;DHT22;14047;50.936;4.654;2023-01-15T01:37:28;8.50;99.90
26336;DHT22;14047;50.936;4.654;2023-01-15T01:39:54;8.40;99.90
26336;DHT22;14047;50.936;4.654;2023-01-15T01:42:21;8.40;99.90
26336;DHT22;14047;50.936;4.654;2023-01-15T01:47:20;8.40;99.90
26336;DHT22;14047;50.936;4.654;2023-01-15T01:49:52;8.30;99.90
26336;DHT22;14047;50.936;4.654;2023-01-15T01:52:26;8.40;99.90
26336;DHT22;14047;50.936;4.654;2023-01-15T01:54:54;8.40;99.90
26336;DHT22;14047;50.936;4.654;2023-01-15T01:57:21;8.40;99.90
26336;DHT22;14047;50.936;4.654;2023-01-15T01:59:48;8.40;99.90
26336;DHT22;14047;50.936;4.654;2023-01-15T02:02:18;8.40;99.90
26336;DHT22;14047;50.936;4.654;2023-01-15T02:04:45;8.40;99.90
26336;DHT22;14047;50.936;4.654;2023-01-15T02:07:11;8.40;99.90
26336;DHT22;14047;50.936;4.654;2023-01-15T02:09:37;8.40;99.90
26336;DHT22;14047;50.936;4.654;2023-01-15T02:12:22;8.30;99.90
26336;DHT22;14047;50.936;4.654;2023-01-15T02:15:09;8.30;99.90
26336;DHT22;14047;50.936;4.654;2023-01-15T02:21:01;8.10;99.90
26336;DHT22;14047;50.936;4.654;2023-01-15T02:29:11;8.00;99.90
26336;DHT22;14047;50.936;4.654;2023-01-15T02:31:45;8.00;99.90
26336;DHT22;14047;50.936;4.654;2023-01-15T02:34:28;8.00;99.90
26336;DHT22;14047;50.936;4.654;2023-01-15T02:37:25;7.90;99.90
26336;DHT22;14047;50.936;4.654;2023-01-15T02:39:54;7.80;99.90
26336;DHT22;14047;50.936;4.654;2023-01-15T02:42:24;7.80;99.90
26336;DHT22;14047;50.936;4.654;2023-01-15T02:44:53;7.80;99.90
26336;DHT22;14047;50.936;4.654;2023-01-15T02:47:25;7.80;99.90
26336;DHT22;14047;50.936;4.654;2023-01-15T02:49:54;7.80;99.90
26336;DHT22;14047;50.936;4.654;2023-01-15T02:52:27;7.70;99.90
26336;DHT22;14047;50.936;4.654;2023-01-15T02:55:03;7.70;99.90
26336;DHT22;14047;50.936;4.654;2023-01-15T02:57:32;7.70;99.90
26336;DHT22;14047;50.936;4.654;2023-01-15T03:00:02;7.70;99.90
26336;DHT22;14047;50.936;4.654;2023-01-15T03:02:38;7.60;99.90
26336;DHT22;14047;50.936;4.654;2023-01-15T03:05:26;7.70;99.90
26336;DHT22;14047;50.936;4.654;2023-01-15T03:07:59;7.60;99.90
26336;DHT22;14047;50.936;4.654;2023-01-15T03:13:05;7.60;99.90
26336;DHT22;14047;50.936;4.654;2023-01-15T03:15:54;7.60;99.90
26336;DHT22;14047;50.936;4.654;2023-01-15T03:22:17;7.60;99.90
26336;DHT22;14047;50.936;4.654;2023-01-15T03:24:51;7.60;99.90
26336;DHT22;14047;50.936;4.654;2023-01-15T03:27:19;7.60;99.90
26336;DHT22;14047;50.936;4.654;2023-01-15T03:29:58;7.60;99.90
26336;DHT22;14047;50.936;4.654;2023-01-15T03:32:26;7.60;99.90
26336;DHT22;14047;50.936;4.654;2023-01-15T03:34:54;7.60;99.90
26336;DHT22;14047;50.936;4.654;2023-01-15T03:37:23;7.60;99.90
26336;DHT22;14047;50.936;4.654;2023-01-15T03:39:52;7.60;99.90
26336;DHT22;14047;50.936;4.654;2023-01-15T03:45:16;7.60;99.90
26336;DHT22;14047;50.936;4.654;2023-01-15T03:51:11;7.50;99.90
26336;DHT22;14047;50.936;4.654;2023-01-15T03:53:50;7.50;99.90
26336;DHT22;14047;50.936;4.654;2023-01-15T03:56:50;7.50;99.90
26336;DHT22;14047;50.936;4.654;2023-01-15T03:59:32;7.50;99.90
26336;DHT22;14047;50.936;4.654;2023-01-15T04:02:03;7.50;99.90
26336;DHT22;14047;50.936;4.654;2023-01-15T04:04:32;7.50;99.90
26336;DHT22;14047;50.936;4.654;2023-01-15T04:07:02;7.50;99.90
26336;DHT22;14047;50.936;4.654;2023-01-15T04:09:29;7.40;99.90
26336;DHT22;14047;50.936;4.654;2023-01-15T04:11:59;7.40;99.90
26336;DHT22;14047;50.936;4.654;2023-01-15T04:14:28;7.30;99.90
26336;DHT22;14047;50.936;4.654;2023-01-15T04:16:56;7.30;99.90
26336;DHT22;14047;50.936;4.654;2023-01-15T04:19:23;7.30;99.90
26336;DHT22;14047;50.936;4.654;2023-01-15T04:22:02;7.20;99.90
26336;DHT22;14047;50.936;4.654;2023-01-15T04:24:28;7.20;99.90
26336;DHT22;14047;50.936;4.654;2023-01-15T04:26:54;7.20;99.90
26336;DHT22;14047;50.936;4.654;2023-01-15T04:29:20;7.10;99.90
26336;DHT22;14047;50.936;4.654;2023-01-15T04:31:46;7.10;99.90
26336;DHT22;14047;50.936;4.654;2023-01-15T04:34:12;7.20;99.90
26336;DHT22;14047;50.936;4.654;2023-01-15T04:36:38;7.20;99.90
26336;DHT22;14047;50.936;4.654;2023-01-15T04:39:04;7.10;99.90
26336;DHT22;14047;50.936;4.654;2023-01-15T04:41:30;7.10;99.90
26336;DHT22;14047;50.936;4.654;2023-01-15T04:44:15;7.20;99.90
26336;DHT22;14047;50.936;4.654;2023-01-15T04:46:45;7.30;99.90
26336;DHT22;14047;50.936;4.654;2023-01-15T04:49:14;7.20;99.90
26336;DHT22;14047;50.936;4.654;2023-01-15T04:51:41;7.20;99.90
26336;DHT22;14047;50.936;4.654;2023-01-15T04:54:08;7.20;99.90
26336;DHT22;14047;50.936;4.654;2023-01-15T04:56:40;7.20;99.90
26336;DHT22;14047;50.936;4.654;2023-01-15T04:59:06;7.20;99.90
26336;DHT22;14047;50.936;4.654;2023-01-15T05:01:32;7.20;99.90
26336;DHT22;14047;50.936;4.654;2023-01-15T05:03:59;7.10;99.90
26336;DHT22;14047;50.936;4.654;2023-01-15T05:06:25;7.20;99.90
26336;DHT22;14047;50.936;4.654;2023-01-15T05:08:51;7.10;99.90
26336;DHT22;14047;50.936;4.654;2023-01-15T05:11:18;7.10;99.90
26336;DHT22;14047;50.936;4.654;2023-01-15T05:13:43;7.10;99.90
26336;DHT22;14047;50.936;4.654;2023-01-15T05:16:14;7.20;99.90
26336;DHT22;14047;50.936;4.654;2023-01-15T05:18:42;7.10;99.90
26336;DHT22;14047;50.936;4.654;2023-01-15T05:21:21;7.00;99.90
26336;DHT22;14047;50.936;4.654;2023-01-15T05:23:49;7.00;99.90
26336;DHT22;14047;50.936;4.654;2023-01-15T05:26:16;7.00;99.90
26336;DHT22;14047;50.936;4.654;2023-01-15T05:28:42;7.00;99.90
26336;DHT22;14047;50.936;4.654;2023-01-15T05:31:11;6.90;99.90
26336;DHT22;14047;50.936;4.654;2023-01-15T05:33:38;6.90;99.90
26336;DHT22;14047;50.936;4.654;2023-01-15T05:36:06;6.90;99.90
26336;DHT22;14047;50.936;4.654;2023-01-15T05:38:33;6.90;99.90
26336;DHT22;14047;50.936;4.654;2023-01-15T05:41:05;7.00;99.90
26336;DHT22;14047;50.936;4.654;2023-01-15T05:43:51;6.90;99.90
26336;DHT22;14047;50.936;4.654;2023-01-15T05:46:17;6.80;99.90
26336;DHT22;14047;50.936;4.654;2023-01-15T05:48:43;6.80;99.90
26336;DHT22;14047;50.936;4.654;2023-01-15T05:51:09;6.80;99.90
26336;DHT22;14047;50.936;4.654;2023-01-15T05:53:35;6.80;99.90
26336;DHT22;14047;50.936;4.654;2023-01-15T05:56:01;6.70;99.90
26336;DHT22;14047;50.936;4.654;2023-01-15T05:58:27;6.70;99.90
26336;DHT22;14047;50.936;4.654;2023-01-15T06:00:53;6.80;99.90
26336;DHT22;14047;50.936;4.654;2023-01-15T06:03:23;6.70;99.90
26336;DHT22;14047;50.936;4.654;2023-01-15T06:05:54;6.80;99.90
26336;DHT22;14047;50.936;4.654;2023-01-15T06:08:22;6.80;99.90
26336;DHT22;14047;50.936;4.654;2023-01-15T06:10:49;6.80;99.90
26336;DHT22;14047;50.936;4.654;2023-01-15T06:13:16;6.80;99.90
26336;DHT22;14047;50.936;4.654;2023-01-15T06:15:42;6.60;99.90
26336;DHT22;14047;50.936;4.654;2023-01-15T06:18:09;6.50;99.90
26336;DHT22;14047;50.936;4.654;2023-01-15T06:20:39;6.30;99.90
26336;DHT22;14047;50.936;4.654;2023-01-15T06:23:05;6.10;99.90
26336;DHT22;14047;50.936;4.654;2023-01-15T06:25:32;6.00;99.90
26336;DHT22;14047;50.936;4.654;2023-01-15T06:28:06;5.90;99.90
26336;DHT22;14047;50.936;4.654;2023-01-15T06:30:33;5.80;99.90
26336;DHT22;14047;50.936;4.654;2023-01-15T06:32:59;5.70;99.90
26336;DHT22;14047;50.936;4.654;2023-01-15T06:35:26;5.70;99.90
26336;DHT22;14047;50.936;4.654;2023-01-15T06:37:52;5.70;99.90
26336;DHT22;14047;50.936;4.654;2023-01-15T06:40:18;5.70;99.90
26336;DHT22;14047;50.936;4.654;2023-01-15T06:42:44;5.70;99.90
26336;DHT22;14047;50.936;4.654;2023-01-15T06:45:36;5.60;99.90
26336;DHT22;14047;50.936;4.654;2023-01-15T06:48:21;5.70;99.90
26336;DHT22;14047;50.936;4.654;2023-01-15T06:50:47;5.70;99.90
26336;DHT22;14047;50.936;4.654;2023-01-15T06:53:13;5.70;99.90
26336;DHT22;14047;50.936;4.654;2023-01-15T06:55:39;5.70;99.90
26336;DHT22;14047;50.936;4.654;2023-01-15T06:58:05;5.80;99.90
26336;DHT22;14047;50.936;4.654;2023-01-15T07:00:31;5.80;99.90
26336;DHT22;14047;50.936;4.654;2023-01-15T07:03:00;5.70;99.90
26336;DHT22;14047;50.936;4.654;2023-01-15T07:05:27;5.80;99.90
26336;DHT22;14047;50.936;4.654;2023-01-15T07:07:53;5.80;99.90
26336;DHT22;14047;50.936;4.654;2023-01-15T07:10:19;5.80;99.90
26336;DHT22;14047;50.936;4.654;2023-01-15T07:12:45;5.70;99.90
26336;DHT22;14047;50.936;4.654;2023-01-15T07:15:11;5.70;99.90
26336;DHT22;14047;50.936;4.654;2023-01-15T07:17:37;5.70;99.90
26336;DHT22;14047;50.936;4.654;2023-01-15T07:20:04;5.60;99.90
26336;DHT22;14047;50.936;4.654;2023-01-15T07:22:30;5.60;99.90
26336;DHT22;14047;50.936;4.654;2023-01-15T07:24:56;5.60;99.90
26336;DHT22;14047;50.936;4.654;2023-01-15T07:27:22;5.60;99.90
26336;DHT22;14047;50.936;4.654;2023-01-15T07:29:48;5.60;99.90
26336;DHT22;14047;50.936;4.654;2023-01-15T07:32:17;5.60;99.90
26336;DHT22;14047;50.936;4.654;2023-01-15T07:34:43;5.60;99.90
26336;DHT22;14047;50.936;4.654;2023-01-15T07:37:09;5.60;99.90
26336;DHT22;14047;50.936;4.654;2023-01-15T07:39:36;5.60;99.90
26336;DHT22;14047;50.936;4.654;2023-01-15T07:42:02;5.60;99.90
26336;DHT22;14047;50.936;4.654;2023-01-15T07:44:47;5.60;99.90
26336;DHT22;14047;50.936;4.654;2023-01-15T07:47:31;5.60;99.90
26336;DHT22;14047;50.936;4.654;2023-01-15T07:50:22;5.60;99.90
26336;DHT22;14047;50.936;4.654;2023-01-15T07:52:48;5.60;99.90
26336;DHT22;14047;50.936;4.654;2023-01-15T07:55:14;5.60;99.90
26336;DHT22;14047;50.936;4.654;2023-01-15T07:57:41;5.70;99.90
26336;DHT22;14047;50.936;4.654;2023-01-15T08:00:12;5.80;99.90
26336;DHT22;14047;50.936;4.654;2023-01-15T08:02:39;5.70;99.90
26336;DHT22;14047;50.936;4.654;2023-01-15T08:05:06;5.60;99.90
26336;DHT22;14047;50.936;4.654;2023-01-15T08:07:42;5.60;99.90
26336;DHT22;14047;50.936;4.654;2023-01-15T08:10:10;5.70;99.90
26336;DHT22;14047;50.936;4.654;2023-01-15T08:12:36;5.70;99.90
26336;DHT22;14047;50.936;4.654;2023-01-15T08:15:20;5.60;99.90
26336;DHT22;14047;50.936;4.654;2023-01-15T08:17:48;5.70;99.90
26336;DHT22;14047;50.936;4.654;2023-01-15T08:20:20;5.70;99.90
26336;DHT22;14047;50.936;4.654;2023-01-15T08:22:46;5.70;99.90
26336;DHT22;14047;50.936;4.654;2023-01-15T08:25:16;5.60;99.90
26336;DHT22;14047;50.936;4.654;2023-01-15T08:27:46;5.70;99.90
26336;DHT22;14047;50.936;4.654;2023-01-15T08:30:24;5.60;99.90
26336;DHT22;14047;50.936;4.654;2023-01-15T08:33:01;5.70;99.90
26336;DHT22;14047;50.936;4.654;2023-01-15T08:35:28;5.70;99.90
26336;DHT22;14047;50.936;4.654;2023-01-15T08:37:54;5.70;99.90
26336;DHT22;14047;50.936;4.654;2023-01-15T08:40:19;5.80;99.90
26336;DHT22;14047;50.936;4.654;2023-01-15T08:42:46;5.80;99.90
26336;DHT22;14047;50.936;4.654;2023-01-15T08:45:12;5.80;99.90
26336;DHT22;14047;50.936;4.654;2023-01-15T08:47:38;5.90;99.90
26336;DHT22;14047;50.936;4.654;2023-01-15T08:50:05;5.90;99.90
26336;DHT22;14047;50.936;4.654;2023-01-15T08:52:33;5.90;99.90
26336;DHT22;14047;50.936;4.654;2023-01-15T08:54:59;5.90;99.90
26336;DHT22;14047;50.936;4.654;2023-01-15T08:57:24;5.90;99.90
26336;DHT22;14047;50.936;4.654;2023-01-15T08:59:50;6.00;99.90
26336;DHT22;14047;50.936;4.654;2023-01-15T09:02:16;6.00;99.90
26336;DHT22;14047;50.936;4.654;2023-01-15T09:04:43;5.90;99.90
26336;DHT22;14047;50.936;4.654;2023-01-15T09:07:09;5.90;99.90
26336;DHT22;14047;50.936;4.654;2023-01-15T09:09:35;6.00;99.90
26336;DHT22;14047;50.936;4.654;2023-01-15T09:12:01;6.00;99.90
26336;DHT22;14047;50.936;4.654;2023-01-15T09:14:27;6.10;99.90
26336;DHT22;14047;50.936;4.654;2023-01-15T09:16:53;6.10;99.90
26336;DHT22;14047;50.936;4.654;2023-01-15T09:19:18;6.20;99.90
26336;DHT22;14047;50.936;4.654;2023-01-15T09:21:44;6.30;99.90
26336;DHT22;14047;50.936;4.654;2023-01-15T09:24:10;6.20;99.90
26336;DHT22;14047;50.936;4.654;2023-01-15T09:26:38;6.30;99.90
26336;DHT22;14047;50.936;4.654;2023-01-15T09:29:05;6.30;99.90
26336;DHT22;14047;50.936;4.654;2023-01-15T09:31:32;6.40;99.90
26336;DHT22;14047;50.936;4.654;2023-01-15T09:33:58;6.40;99.90
26336;DHT22;14047;50.936;4.654;2023-01-15T09:36:30;6.40;99.90
26336;DHT22;14047;50.936;4.654;2023-01-15T09:38:58;6.50;99.90
26336;DHT22;14047;50.936;4.654;2023-01-15T09:41:29;6.50;99.90
26336;DHT22;14047;50.936;4.654;2023-01-15T09:44:27;6.50;99.90
26336;DHT22;14047;50.936;4.654;2023-01-15T09:47:07;6.60;99.90
26336;DHT22;14047;50.936;4.654;2023-01-15T09:50:08;6.60;99.90
26336;DHT22;14047;50.936;4.654;2023-01-15T09:52:53;6.50;99.90
26336;DHT22;14047;50.936;4.654;2023-01-15T09:55:25;6.40;99.90
26336;DHT22;14047;50.936;4.654;2023-01-15T09:57:55;6.30;99.90
26336;DHT22;14047;50.936;4.654;2023-01-15T10:00:24;6.30;99.90
26336;DHT22;14047;50.936;4.654;2023-01-15T10:03:10;6.30;99.90
26336;DHT22;14047;50.936;4.654;2023-01-15T10:06:02;6.30;99.90
26336;DHT22;14047;50.936;4.654;2023-01-15T10:08:45;6.30;99.90
26336;DHT22;14047;50.936;4.654;2023-01-15T10:13:57;6.40;99.90
26336;DHT22;14047;50.936;4.654;2023-01-15T10:16:27;6.40;99.90
26336;DHT22;14047;50.936;4.654;2023-01-15T10:18:55;6.40;99.90
26336;DHT22;14047;50.936;4.654;2023-01-15T10:24:09;6.30;99.90
26336;DHT22;14047;50.936;4.654;2023-01-15T10:29:32;6.30;99.90
26336;DHT22;14047;50.936;4.654;2023-01-15T10:35:15;6.30;99.90
26336;DHT22;14047;50.936;4.654;2023-01-15T10:37:58;6.20;99.90
26336;DHT22;14047;50.936;4.654;2023-01-15T10:46:07;6.20;99.90
26336;DHT22;14047;50.936;4.654;2023-01-15T10:48:43;6.10;99.90
26336;DHT22;14047;50.936;4.654;2023-01-15T10:51:30;6.10;99.90
26336;DHT22;14047;50.936;4.654;2023-01-15T10:54:34;6.30;99.90
26336;DHT22;14047;50.936;4.654;2023-01-15T10:57:08;6.30;99.90
26336;DHT22;14047;50.936;4.654;2023-01-15T11:05:01;6.60;99.90
26336;DHT22;14047;50.936;4.654;2023-01-15T11:07:37;6.60;99.90
26336;DHT22;14047;50.936;4.654;2023-01-15T11:10:06;6.70;99.90
26336;DHT22;14047;50.936;4.654;2023-01-15T11:12:34;6.70;99.90
26336;DHT22;14047;50.936;4.654;2023-01-15T11:15:24;6.80;99.90
26336;DHT22;14047;50.936;4.654;2023-01-15T11:18:22;6.90;99.90
26336;DHT22;14047;50.936;4.654;2023-01-15T11:21:17;7.00;99.90
26336;DHT22;14047;50.936;4.654;2023-01-15T11:23:44;7.00;99.90
26336;DHT22;14047;50.936;4.654;2023-01-15T11:26:21;7.10;99.90
26336;DHT22;14047;50.936;4.654;2023-01-15T11:28:48;7.10;99.90
26336;DHT22;14047;50.936;4.654;2023-01-15T11:31:15;7.10;99.90
26336;DHT22;14047;50.936;4.654;2023-01-15T11:34:02;7.20;99.90
26336;DHT22;14047;50.936;4.654;2023-01-15T11:36:29;7.20;99.90
26336;DHT22;14047;50.936;4.654;2023-01-15T11:38:56;7.20;99.90
26336;DHT22;14047;50.936;4.654;2023-01-15T11:41:23;7.10;99.90
26336;DHT22;14047;50.936;4.654;2023-01-15T11:44:13;7.20;99.90
26336;DHT22;14047;50.936;4.654;2023-01-15T11:46:57;7.30;99.90
26336;DHT22;14047;50.936;4.654;2023-01-15T11:49:52;7.40;99.90
26336;DHT22;14047;50.936;4.654;2023-01-15T11:52:50;7.40;99.90
26336;DHT22;14047;50.936;4.654;2023-01-15T11:55:24;7.50;99.90
26336;DHT22;14047;50.936;4.654;2023-01-15T11:57:51;7.50;99.90
26336;DHT22;14047;50.936;4.654;2023-01-15T12:00:25;7.40;99.90
26336;DHT22;14047;50.936;4.654;2023-01-15T12:02:54;7.30;99.90
26336;DHT22;14047;50.936;4.654;2023-01-15T12:05:28;7.30;99.90
26336;DHT22;14047;50.936;4.654;2023-01-15T12:08:03;7.40;99.90
26336;DHT22;14047;50.936;4.654;2023-01-15T12:10:36;7.40;99.90
26336;DHT22;14047;50.936;4.654;2023-01-15T12:32:46;7.50;99.90
26336;DHT22;14047;50.936;4.654;2023-01-15T12:35:31;7.60;99.90
26336;DHT22;14047;50.936;4.654;2023-01-15T12:38:15;7.50;99.90
26336;DHT22;14047;50.936;4.654;2023-01-15T12:40:53;7.50;99.90
26336;DHT22;14047;50.936;4.654;2023-01-15T12:43:24;7.50;99.90
26336;DHT22;14047;50.936;4.654;2023-01-15T12:46:13;7.40;99.90
26336;DHT22;14047;50.936;4.654;2023-01-15T12:51:56;7.30;99.90
26336;DHT22;14047;50.936;4.654;2023-01-15T12:54:29;7.30;99.90
26336;DHT22;14047;50.936;4.654;2023-01-15T12:57:02;7.30;99.90
26336;DHT22;14047;50.936;4.654;2023-01-15T12:59:41;7.40;99.90
26336;DHT22;14047;50.936;4.654;2023-01-15T13:02:27;7.50;99.90
26336;DHT22;14047;50.936;4.654;2023-01-15T13:05:20;7.50;99.90
26336;DHT22;14047;50.936;4.654;2023-01-15T13:10:29;7.60;99.90
26336;DHT22;14047;50.936;4.654;2023-01-15T13:13:17;7.70;99.90
26336;DHT22;14047;50.936;4.654;2023-01-15T13:19:13;7.70;99.90
26336;DHT22;14047;50.936;4.654;2023-01-15T13:21:35;7.70;99.90
26336;DHT22;14047;50.936;4.654;2023-01-15T13:32:42;7.70;99.90
26336;DHT22;14047;50.936;4.654;2023-01-15T13:35:18;7.70;99.90
26336;DHT22;14047;50.936;4.654;2023-01-15T13:37:51;7.70;99.90
26336;DHT22;14047;50.936;4.654;2023-01-15T13:40:29;7.70;99.90
26336;DHT22;14047;50.936;4.654;2023-01-15T13:43:00;7.60;99.90
26336;DHT22;14047;50.936;4.654;2023-01-15T13:45:39;7.60;99.90
26336;DHT22;14047;50.936;4.654;2023-01-15T13:48:19;7.70;99.90
26336;DHT22;14047;50.936;4.654;2023-01-15T13:50:56;7.70;99.90
26336;DHT22;14047;50.936;4.654;2023-01-15T13:53:44;7.70;99.90
26336;DHT22;14047;50.936;4.654;2023-01-15T13:56:13;7.60;99.90
26336;DHT22;14047;50.936;4.654;2023-01-15T13:58:57;7.50;99.90
26336;DHT22;14047;50.936;4.654;2023-01-15T14:01:30;7.30;99.90
26336;DHT22;14047;50.936;4.654;2023-01-15T14:06:44;7.30;99.90
26336;DHT22;14047;50.936;4.654;2023-01-15T14:09:26;7.30;99.90
26336;DHT22;14047;50.936;4.654;2023-01-15T14:34:26;6.80;99.90
26336;DHT22;14047;50.936;4.654;2023-01-15T14:39:39;6.90;99.90
26336;DHT22;14047;50.936;4.654;2023-01-15T14:47:43;6.80;99.90
26336;DHT22;14047;50.936;4.654;2023-01-15T14:50:33;6.90;99.90
26336;DHT22;14047;50.936;4.654;2023-01-15T15:00:51;6.90;99.90
26336;DHT22;14047;50.936;4.654;2023-01-15T15:03:23;7.00;99.90
26336;DHT22;14047;50.936;4.654;2023-01-15T15:05:53;7.00;99.90
26336;DHT22;14047;50.936;4.654;2023-01-15T15:08:20;6.90;99.90
26336;DHT22;14047;50.936;4.654;2023-01-15T15:10:52;6.90;99.90
26336;DHT22;14047;50.936;4.654;2023-01-15T15:13:29;6.90;99.90
26336;DHT22;14047;50.936;4.654;2023-01-15T15:16:23;6.80;99.90
26336;DHT22;14047;50.936;4.654;2023-01-15T15:19:05;6.80;99.90
26336;DHT22;14047;50.936;4.654;2023-01-15T15:21:40;6.60;99.90
26336;DHT22;14047;50.936;4.654;2023-01-15T15:24:29;6.50;99.90
26336;DHT22;14047;50.936;4.654;2023-01-15T15:26:56;6.50;99.90
26336;DHT22;14047;50.936;4.654;2023-01-15T15:29:22;6.60;99.90
26336;DHT22;14047;50.936;4.654;2023-01-15T15:31:53;6.60;99.90
26336;DHT22;14047;50.936;4.654;2023-01-15T15:34:36;6.60;99.90
26336;DHT22;14047;50.936;4.654;2023-01-15T15:37:27;6.70;99.90
26336;DHT22;14047;50.936;4.654;2023-01-15T15:42:39;6.60;99.90
26336;DHT22;14047;50.936;4.654;2023-01-15T15:45:30;6.70;99.90
26336;DHT22;14047;50.936;4.654;2023-01-15T15:48:28;6.60;99.90
26336;DHT22;14047;50.936;4.654;2023-01-15T15:54:16;6.60;99.90
26336;DHT22;14047;50.936;4.654;2023-01-15T15:59:46;6.60;99.90
26336;DHT22;14047;50.936;4.654;2023-01-15T16:02:26;6.50;99.90
26336;DHT22;14047;50.936;4.654;2023-01-15T16:04:58;6.50;99.90
26336;DHT22;14047;50.936;4.654;2023-01-15T16:07:27;6.60;99.90
26336;DHT22;14047;50.936;4.654;2023-01-15T16:09:57;6.60;99.90
26336;DHT22;14047;50.936;4.654;2023-01-15T16:12:26;6.50;99.90
26336;DHT22;14047;50.936;4.654;2023-01-15T16:14:54;6.50;99.90
26336;DHT22;14047;50.936;4.654;2023-01-15T16:17:22;6.50;99.90
26336;DHT22;14047;50.936;4.654;2023-01-15T16:19:50;6.50;99.90
26336;DHT22;14047;50.936;4.654;2023-01-15T16:22:16;6.40;99.90
26336;DHT22;14047;50.936;4.654;2023-01-15T16:24:53;6.30;99.90
26336;DHT22;14047;50.936;4.654;2023-01-15T16:27:31;6.40;99.90
26336;DHT22;14047;50.936;4.654;2023-01-15T16:29:59;6.20;99.90
26336;DHT22;14047;50.936;4.654;2023-01-15T16:32:29;6.20;99.90
26336;DHT22;14047;50.936;4.654;2023-01-15T16:35:06;6.10;99.90
26336;DHT22;14047;50.936;4.654;2023-01-15T16:37:33;6.00;99.90
26336;DHT22;14047;50.936;4.654;2023-01-15T16:40:02;5.90;99.90
26336;DHT22;14047;50.936;4.654;2023-01-15T16:42:35;5.80;99.90
26336;DHT22;14047;50.936;4.654;2023-01-15T16:45:19;5.80;99.90
26336;DHT22;14047;50.936;4.654;2023-01-15T16:50:28;5.70;99.90
26336;DHT22;14047;50.936;4.654;2023-01-15T16:52:56;5.80;99.90
26336;DHT22;14047;50.936;4.654;2023-01-15T17:00:38;5.80;99.90
26336;DHT22;14047;50.936;4.654;2023-01-15T17:03:13;5.80;99.90
26336;DHT22;14047;50.936;4.654;2023-01-15T17:05:39;5.80;99.90
26336;DHT22;14047;50.936;4.654;2023-01-15T17:08:17;5.90;99.90
26336;DHT22;14047;50.936;4.654;2023-01-15T17:10:54;5.90;99.90
26336;DHT22;14047;50.936;4.654;2023-01-15T17:13:21;5.90;99.90
26336;DHT22;14047;50.936;4.654;2023-01-15T17:16:00;6.00;99.90
26336;DHT22;14047;50.936;4.654;2023-01-15T17:18:27;6.00;99.90
26336;DHT22;14047;50.936;4.654;2023-01-15T17:20:54;6.00;99.90
26336;DHT22;14047;50.936;4.654;2023-01-15T17:23:24;6.10;99.90
26336;DHT22;14047;50.936;4.654;2023-01-15T17:25:51;6.10;99.90
26336;DHT22;14047;50.936;4.654;2023-01-15T17:28:17;6.10;99.90
26336;DHT22;14047;50.936;4.654;2023-01-15T17:30:44;6.00;99.90
26336;DHT22;14047;50.936;4.654;2023-01-15T17:33:13;5.80;99.90
26336;DHT22;14047;50.936;4.654;2023-01-15T17:35:39;5.80;99.90
26336;DHT22;14047;50.936;4.654;2023-01-15T17:38:08;5.70;99.90
26336;DHT22;14047;50.936;4.654;2023-01-15T17:40:37;5.60;99.90
26336;DHT22;14047;50.936;4.654;2023-01-15T17:43:04;5.40;99.90
26336;DHT22;14047;50.936;4.654;2023-01-15T17:45:31;5.30;99.90
26336;DHT22;14047;50.936;4.654;2023-01-15T17:47:58;5.20;99.90
26336;DHT22;14047;50.936;4.654;2023-01-15T17:50:24;5.20;99.90
26336;DHT22;14047;50.936;4.654;2023-01-15T17:52:50;5.20;99.90
26336;DHT22;14047;50.936;4.654;2023-01-15T17:55:22;5.30;99.90
26336;DHT22;14047;50.936;4.654;2023-01-15T17:58:10;5.50;99.90
26336;DHT22;14047;50.936;4.654;2023-01-15T18:00:56;5.50;99.90
26336;DHT22;14047;50.936;4.654;2023-01-15T18:03:45;5.60;99.90
26336;DHT22;14047;50.936;4.654;2023-01-15T18:06:31;5.70;99.90
26336;DHT22;14047;50.936;4.654;2023-01-15T18:09:00;5.80;99.90
26336;DHT22;14047;50.936;4.654;2023-01-15T18:11:27;5.90;99.90
26336;DHT22;14047;50.936;4.654;2023-01-15T18:13:53;6.00;99.90
26336;DHT22;14047;50.936;4.654;2023-01-15T18:16:21;6.00;99.90
26336;DHT22;14047;50.936;4.654;2023-01-15T18:18:47;6.20;99.90
26336;DHT22;14047;50.936;4.654;2023-01-15T18:21:13;6.30;99.90
26336;DHT22;14047;50.936;4.654;2023-01-15T18:23:39;6.30;99.90
26336;DHT22;14047;50.936;4.654;2023-01-15T18:26:06;6.40;99.90
26336;DHT22;14047;50.936;4.654;2023-01-15T18:28:34;6.50;99.90
26336;DHT22;14047;50.936;4.654;2023-01-15T18:31:01;6.60;99.90
26336;DHT22;14047;50.936;4.654;2023-01-15T18:33:28;6.70;99.90
26336;DHT22;14047;50.936;4.654;2023-01-15T18:36:04;6.90;99.90